sensor_id;sensor_type;location;lat;lon;timestamp;pressure;altitude;pressure_sealevel;temperature;humidity
8253;BME280;61313;48.396;10.008;2023-04-26T00:00:19;96167.41;;;9.32;61.51
8253;BME280;61313;48.396;10.008;2023-04-26T00:02:45;96161.53;;;9.27;61.98
8253;BME280;61313;48.396;10.008;2023-04-26T00:05:10;96161.66;;;9.24;62.35
8253;BME280;61313;48.396;10.008;2023-04-26T00:07:35;96165.06;;;9.26;62.38
8253;BME280;61313;48.396;10.008;2023-04-26T00:10:03;96164.00;;;9.30;62.07
8253;BME280;61313;48.396;10.008;2023-04-26T00:12:29;96159.72;;;9.29;61.38
8253;BME280;61313;48.396;10.008;2023-04-26T00:14:54;96163.13;;;9.31;61.09
8253;BME280;61313;48.396;10.008;2023-04-26T00:17:20;96152.75;;;9.28;61.70
8253;BME280;61313;48.396;10.008;2023-04-26T00:19:45;96155.06;;;9.15;61.33
8253;BME280;61313;48.396;10.008;2023-04-26T00:22:11;96146.06;;;9.21;60.50
8253;BME280;61313;48.396;10.008;2023-04-26T00:24:37;96156.56;;;9.00;61.05
8253;BME280;61313;48.396;10.008;2023-04-26T00:27:02;96167.28;;;9.15;61.08
8253;BME280;61313;48.396;10.008;2023-04-26T00:29:33;96164.34;;;9.22;61.50
8253;BME280;61313;48.396;10.008;2023-04-26T00:31:58;96170.81;;;9.14;60.27
8253;BME280;61313;48.396;10.008;2023-04-26T00:34:24;96171.78;;;9.11;61.72
8253;BME280;61313;48.396;10.008;2023-04-26T00:36:49;96171.13;;;9.06;60.26
8253;BME280;61313;48.396;10.008;2023-04-26T00:39:15;96171.19;;;9.04;61.89
8253;BME280;61313;48.396;10.008;2023-04-26T00:41:40;96165.06;;;9.26;60.94
8253;BME280;61313;48.396;10.008;2023-04-26T00:44:06;96164.50;;;9.19;59.57
8253;BME280;61313;48.396;10.008;2023-04-26T00:46:31;96171.59;;;9.16;58.75
8253;BME280;61313;48.396;10.008;2023-04-26T00:48:57;96169.53;;;9.24;58.50
8253;BME280;61313;48.396;10.008;2023-04-26T00:51:22;96172.25;;;9.21;58.18
8253;BME280;61313;48.396;10.008;2023-04-26T00:53:48;96161.41;;;9.30;59.01
8253;BME280;61313;48.396;10.008;2023-04-26T00:56:15;96162.72;;;9.20;58.22
8253;BME280;61313;48.396;10.008;2023-04-26T00:58:40;96169.97;;;9.13;58.04
8253;BME280;61313;48.396;10.008;2023-04-26T01:01:06;96170.69;;;9.17;58.11
8253;BME280;61313;48.396;10.008;2023-04-26T01:03:32;96173.88;;;9.23;60.19
8253;BME280;61313;48.396;10.008;2023-04-26T01:05:57;96165.31;;;9.20;61.30
8253;BME280;61313;48.396;10.008;2023-04-26T01:08:23;96164.78;;;9.11;61.72
8253;BME280;61313;48.396;10.008;2023-04-26T01:10:49;96172.16;;;9.02;61.33
8253;BME280;61313;48.396;10.008;2023-04-26T01:13:15;96174.19;;;8.95;62.29
8253;BME280;61313;48.396;10.008;2023-04-26T01:15:44;96172.25;;;9.00;61.91
8253;BME280;61313;48.396;10.008;2023-04-26T01:18:09;96169.94;;;8.93;61.91
8253;BME280;61313;48.396;10.008;2023-04-26T01:20:35;96169.88;;;8.94;61.12
8253;BME280;61313;48.396;10.008;2023-04-26T01:23:01;96164.50;;;8.97;61.32
8253;BME280;61313;48.396;10.008;2023-04-26T01:25:26;96169.28;;;8.87;61.71
8253;BME280;61313;48.396;10.008;2023-04-26T01:27:54;96168.84;;;8.76;62.00
8253;BME280;61313;48.396;10.008;2023-04-26T01:30:20;96183.78;;;8.74;61.50
8253;BME280;61313;48.396;10.008;2023-04-26T01:32:45;96183.34;;;8.85;61.14
8253;BME280;61313;48.396;10.008;2023-04-26T01:35:10;96178.38;;;8.79;60.87
8253;BME280;61313;48.396;10.008;2023-04-26T01:37:36;96174.97;;;8.77;61.81
8253;BME280;61313;48.396;10.008;2023-04-26T01:40:02;96177.97;;;8.88;61.99
8253;BME280;61313;48.396;10.008;2023-04-26T01:42:30;96173.78;;;8.84;61.35
8253;BME280;61313;48.396;10.008;2023-04-26T01:44:56;96173.38;;;8.73;60.59
8253;BME280;61313;48.396;10.008;2023-04-26T01:47:21;96170.75;;;8.73;59.85
8253;BME280;61313;48.396;10.008;2023-04-26T01:49:46;96174.78;;;8.81;58.60
8253;BME280;61313;48.396;10.008;2023-04-26T01:52:12;96167.09;;;8.77;58.38
8253;BME280;61313;48.396;10.008;2023-04-26T01:54:37;96171.97;;;8.86;58.08
8253;BME280;61313;48.396;10.008;2023-04-26T01:57:03;96169.41;;;8.84;58.40
8253;BME280;61313;48.396;10.008;2023-04-26T01:59:28;96165.34;;;8.77;58.68
8253;BME280;61313;48.396;10.008;2023-04-26T02:01:54;96174.03;;;8.56;58.70
8253;BME280;61313;48.396;10.008;2023-04-26T02:04:19;96168.31;;;8.68;59.06
8253;BME280;61313;48.396;10.008;2023-04-26T02:06:45;96168.31;;;8.68;59.73
8253;BME280;61313;48.396;10.008;2023-04-26T02:09:10;96170.81;;;8.71;60.11
8253;BME280;61313;48.396;10.008;2023-04-26T02:11:36;96167.34;;;8.71;60.16
8253;BME280;61313;48.396;10.008;2023-04-26T02:14:01;96165.88;;;8.63;60.07
8253;BME280;61313;48.396;10.008;2023-04-26T02:16:27;96164.00;;;8.67;61.24
8253;BME280;61313;48.396;10.008;2023-04-26T02:18:52;96168.56;;;8.62;61.28
8253;BME280;61313;48.396;10.008;2023-04-26T02:21:18;96163.31;;;8.62;61.18
8253;BME280;61313;48.396;10.008;2023-04-26T02:23:43;96165.09;;;8.61;60.31
8253;BME280;61313;48.396;10.008;2023-04-26T02:26:09;96164.28;;;8.59;60.62
8253;BME280;61313;48.396;10.008;2023-04-26T02:28:36;96165.09;;;8.61;61.32
8253;BME280;61313;48.396;10.008;2023-04-26T02:31:02;96168.63;;;8.60;60.59
8253;BME280;61313;48.396;10.008;2023-04-26T02:33:27;96168.88;;;8.54;60.05
8253;BME280;61313;48.396;10.008;2023-04-26T02:35:53;96169.78;;;8.53;60.38
8253;BME280;61313;48.396;10.008;2023-04-26T02:38:18;96169.88;;;8.50;61.35
8253;BME280;61313;48.396;10.008;2023-04-26T02:40:44;96170.31;;;8.61;61.65
8253;BME280;61313;48.396;10.008;2023-04-26T02:43:10;96167.03;;;8.56;62.12
8253;BME280;61313;48.396;10.008;2023-04-26T02:45:44;96174.16;;;8.53;62.38
8253;BME280;61313;48.396;10.008;2023-04-26T02:48:10;96164.66;;;8.50;62.79
8253;BME280;61313;48.396;10.008;2023-04-26T02:50:35;96169.97;;;8.48;63.62
8253;BME280;61313;48.396;10.008;2023-04-26T02:53:00;96168.44;;;8.43;63.57
8253;BME280;61313;48.396;10.008;2023-04-26T02:55:27;96168.56;;;8.40;63.93
8253;BME280;61313;48.396;10.008;2023-04-26T02:57:53;96166.59;;;8.45;64.26
8253;BME280;61313;48.396;10.008;2023-04-26T03:00:18;96177.72;;;8.50;63.67
8253;BME280;61313;48.396;10.008;2023-04-26T03:02:44;96173.88;;;8.37;63.95
8253;BME280;61313;48.396;10.008;2023-04-26T03:05:09;96169.81;;;8.30;64.24
8253;BME280;61313;48.396;10.008;2023-04-26T03:07:35;96174.09;;;8.31;64.70
8253;BME280;61313;48.396;10.008;2023-04-26T03:10:00;96174.59;;;8.42;64.91
8253;BME280;61313;48.396;10.008;2023-04-26T03:12:26;96167.84;;;8.35;65.10
8253;BME280;61313;48.396;10.008;2023-04-26T03:14:51;96165.59;;;8.25;65.53
8253;BME280;61313;48.396;10.008;2023-04-26T03:17:17;96169.47;;;8.15;65.53
8253;BME280;61313;48.396;10.008;2023-04-26T03:19:42;96178.53;;;8.28;65.13
8253;BME280;61313;48.396;10.008;2023-04-26T03:22:08;96177.19;;;8.42;65.15
8253;BME280;61313;48.396;10.008;2023-04-26T03:24:35;96171.19;;;8.38;64.71
8253;BME280;61313;48.396;10.008;2023-04-26T03:27:01;96173.78;;;8.40;63.45
8253;BME280;61313;48.396;10.008;2023-04-26T03:29:26;96179.00;;;8.40;63.53
8253;BME280;61313;48.396;10.008;2023-04-26T03:31:51;96172.63;;;8.23;63.64
8253;BME280;61313;48.396;10.008;2023-04-26T03:34:17;96175.44;;;8.19;63.08
8253;BME280;61313;48.396;10.008;2023-04-26T03:36:42;96181.22;;;8.27;63.98
8253;BME280;61313;48.396;10.008;2023-04-26T03:39:07;96187.00;;;8.35;63.36
8253;BME280;61313;48.396;10.008;2023-04-26T03:41:35;96179.13;;;8.37;62.06
8253;BME280;61313;48.396;10.008;2023-04-26T03:44:03;96174.63;;;8.40;62.45
8253;BME280;61313;48.396;10.008;2023-04-26T03:46:29;96182.44;;;8.42;61.35
8253;BME280;61313;48.396;10.008;2023-04-26T03:48:54;96183.41;;;8.38;62.68
8253;BME280;61313;48.396;10.008;2023-04-26T03:51:22;96181.16;;;8.28;62.13
8253;BME280;61313;48.396;10.008;2023-04-26T03:53:48;96180.00;;;8.36;62.07
8253;BME280;61313;48.396;10.008;2023-04-26T03:56:13;96172.91;;;8.39;61.64
8253;BME280;61313;48.396;10.008;2023-04-26T03:58:39;96181.06;;;8.32;61.82
8253;BME280;61313;48.396;10.008;2023-04-26T04:01:04;96180.75;;;8.39;62.08
8253;BME280;61313;48.396;10.008;2023-04-26T04:03:29;96178.03;;;8.42;60.75
8253;BME280;61313;48.396;10.008;2023-04-26T04:05:55;96175.13;;;8.26;62.21
8253;BME280;61313;48.396;10.008;2023-04-26T04:08:20;96179.75;;;8.20;62.57
8253;BME280;61313;48.396;10.008;2023-04-26T04:10:46;96169.44;;;8.39;62.28
8253;BME280;61313;48.396;10.008;2023-04-26T04:13:11;96175.09;;;8.28;62.43
8253;BME280;61313;48.396;10.008;2023-04-26T04:15:37;96172.91;;;7.94;64.17
8253;BME280;61313;48.396;10.008;2023-04-26T04:18:02;96177.03;;;7.99;63.62
8253;BME280;61313;48.396;10.008;2023-04-26T04:20:28;96173.41;;;8.03;63.53
8253;BME280;61313;48.396;10.008;2023-04-26T04:22:54;96183.06;;;8.01;64.34
8253;BME280;61313;48.396;10.008;2023-04-26T04:25:20;96183.22;;;8.20;63.94
8253;BME280;61313;48.396;10.008;2023-04-26T04:27:47;96184.63;;;8.29;61.66
8253;BME280;61313;48.396;10.008;2023-04-26T04:30:13;96189.59;;;8.13;62.41
8253;BME280;61313;48.396;10.008;2023-04-26T04:32:39;96191.38;;;8.35;61.69
8253;BME280;61313;48.396;10.008;2023-04-26T04:35:06;96190.94;;;8.23;62.31
8253;BME280;61313;48.396;10.008;2023-04-26T04:37:32;96184.25;;;8.38;62.30
8253;BME280;61313;48.396;10.008;2023-04-26T04:39:58;96191.63;;;8.28;62.36
8253;BME280;61313;48.396;10.008;2023-04-26T04:42:24;96200.44;;;8.02;61.74
8253;BME280;61313;48.396;10.008;2023-04-26T04:44:51;96189.28;;;8.21;60.71
8253;BME280;61313;48.396;10.008;2023-04-26T04:47:17;96190.56;;;7.87;61.63
8253;BME280;61313;48.396;10.008;2023-04-26T04:49:43;96190.94;;;8.23;60.87
8253;BME280;61313;48.396;10.008;2023-04-26T04:52:08;96196.00;;;8.28;60.14
8253;BME280;61313;48.396;10.008;2023-04-26T04:54:33;96193.16;;;8.34;60.74
8253;BME280;61313;48.396;10.008;2023-04-26T04:56:59;96202.19;;;8.25;60.75
8253;BME280;61313;48.396;10.008;2023-04-26T04:59:25;96202.81;;;8.32;59.70
8253;BME280;61313;48.396;10.008;2023-04-26T05:01:51;96189.97;;;8.50;59.51
8253;BME280;61313;48.396;10.008;2023-04-26T05:04:16;96199.06;;;8.39;59.46
8253;BME280;61313;48.396;10.008;2023-04-26T05:06:42;96202.16;;;8.51;59.35
8253;BME280;61313;48.396;10.008;2023-04-26T05:09:10;96195.03;;;8.54;58.47
8253;BME280;61313;48.396;10.008;2023-04-26T05:11:36;96202.72;;;8.57;58.34
8253;BME280;61313;48.396;10.008;2023-04-26T05:14:01;96195.06;;;8.53;59.80
8253;BME280;61313;48.396;10.008;2023-04-26T05:16:27;96196.00;;;8.74;58.48
8253;BME280;61313;48.396;10.008;2023-04-26T05:18:52;96191.69;;;8.73;58.18
8253;BME280;61313;48.396;10.008;2023-04-26T05:21:18;96191.91;;;8.66;58.38
8253;BME280;61313;48.396;10.008;2023-04-26T05:23:44;96202.16;;;8.73;57.72
8253;BME280;61313;48.396;10.008;2023-04-26T05:26:14;96206.09;;;8.83;58.37
8253;BME280;61313;48.396;10.008;2023-04-26T05:28:40;96203.28;;;8.87;58.16
8253;BME280;61313;48.396;10.008;2023-04-26T05:31:06;96214.72;;;8.85;58.53
8253;BME280;61313;48.396;10.008;2023-04-26T05:33:31;96218.75;;;8.94;58.28
8253;BME280;61313;48.396;10.008;2023-04-26T05:35:56;96220.69;;;8.66;58.25
8253;BME280;61313;48.396;10.008;2023-04-26T05:38:23;96223.44;;;8.85;58.20
8253;BME280;61313;48.396;10.008;2023-04-26T05:40:48;96230.91;;;8.95;59.00
8253;BME280;61313;48.396;10.008;2023-04-26T05:43:14;96224.59;;;8.78;58.45
8253;BME280;61313;48.396;10.008;2023-04-26T05:45:49;96230.31;;;8.88;57.93
8253;BME280;61313;48.396;10.008;2023-04-26T05:48:15;96229.63;;;9.27;58.04
8253;BME280;61313;48.396;10.008;2023-04-26T05:50:41;96229.22;;;9.36;57.00
8253;BME280;61313;48.396;10.008;2023-04-26T05:53:06;96233.50;;;9.39;56.62
8253;BME280;61313;48.396;10.008;2023-04-26T05:55:32;96237.69;;;9.63;55.44
8253;BME280;61313;48.396;10.008;2023-04-26T05:57:57;96233.81;;;10.32;53.53
8253;BME280;61313;48.396;10.008;2023-04-26T06:00:23;96232.47;;;10.80;52.56
8253;BME280;61313;48.396;10.008;2023-04-26T06:02:49;96232.41;;;11.70;49.43
8253;BME280;61313;48.396;10.008;2023-04-26T06:05:14;96228.72;;;12.25;48.30
8253;BME280;61313;48.396;10.008;2023-04-26T06:07:40;96236.50;;;12.11;48.13
8253;BME280;61313;48.396;10.008;2023-04-26T06:10:05;96239.53;;;11.51;49.35
8253;BME280;61313;48.396;10.008;2023-04-26T06:12:31;96242.13;;;11.33;49.80
8253;BME280;61313;48.396;10.008;2023-04-26T06:14:57;96244.84;;;10.95;49.48
8253;BME280;61313;48.396;10.008;2023-04-26T06:17:22;96241.91;;;10.46;51.79
8253;BME280;61313;48.396;10.008;2023-04-26T06:19:49;96239.38;;;10.24;53.07
8253;BME280;61313;48.396;10.008;2023-04-26T06:22:14;96243.00;;;10.42;51.57
8253;BME280;61313;48.396;10.008;2023-04-26T06:24:40;96240.56;;;10.56;51.60
8253;BME280;61313;48.396;10.008;2023-04-26T06:27:05;96232.69;;;10.75;51.67
8253;BME280;61313;48.396;10.008;2023-04-26T06:29:34;96236.78;;;10.81;49.76
8253;BME280;61313;48.396;10.008;2023-04-26T06:31:59;96245.25;;;11.05;49.22
8253;BME280;61313;48.396;10.008;2023-04-26T06:34:25;96241.56;;;10.54;50.37
8253;BME280;61313;48.396;10.008;2023-04-26T06:36:51;96244.41;;;10.30;50.42
8253;BME280;61313;48.396;10.008;2023-04-26T06:39:16;96247.72;;;9.74;52.15
8253;BME280;61313;48.396;10.008;2023-04-26T06:41:42;96246.00;;;9.52;51.68
8253;BME280;61313;48.396;10.008;2023-04-26T06:44:07;96240.69;;;9.95;49.08
8253;BME280;61313;48.396;10.008;2023-04-26T06:46:33;96249.16;;;10.02;48.72
8253;BME280;61313;48.396;10.008;2023-04-26T06:48:59;96253.28;;;10.26;49.71
8253;BME280;61313;48.396;10.008;2023-04-26T06:51:25;96249.34;;;10.36;49.88
8253;BME280;61313;48.396;10.008;2023-04-26T06:53:51;96251.31;;;10.31;50.48
8253;BME280;61313;48.396;10.008;2023-04-26T06:56:17;96251.06;;;10.37;50.73
8253;BME280;61313;48.396;10.008;2023-04-26T06:58:58;96257.53;;;9.89;51.86
8253;BME280;61313;48.396;10.008;2023-04-26T07:01:24;96257.38;;;9.51;53.29
8253;BME280;61313;48.396;10.008;2023-04-26T07:03:50;96251.63;;;10.05;52.90
8253;BME280;61313;48.396;10.008;2023-04-26T07:06:15;96244.56;;;10.26;51.09
8253;BME280;61313;48.396;10.008;2023-04-26T07:08:41;96242.75;;;10.07;51.59
8253;BME280;61313;48.396;10.008;2023-04-26T07:11:11;96250.66;;;10.26;51.75
8253;BME280;61313;48.396;10.008;2023-04-26T07:13:36;96242.69;;;10.48;51.26
8253;BME280;61313;48.396;10.008;2023-04-26T07:16:02;96248.56;;;10.34;51.03
8253;BME280;61313;48.396;10.008;2023-04-26T07:18:27;96249.22;;;10.40;51.16
8253;BME280;61313;48.396;10.008;2023-04-26T07:20:52;96246.19;;;11.04;49.28
8253;BME280;61313;48.396;10.008;2023-04-26T07:23:18;96249.28;;;11.12;49.15
8253;BME280;61313;48.396;10.008;2023-04-26T07:25:44;96248.16;;;10.44;51.14
8253;BME280;61313;48.396;10.008;2023-04-26T07:28:09;96246.03;;;10.33;50.71
8253;BME280;61313;48.396;10.008;2023-04-26T07:30:35;96255.97;;;9.65;53.15
8253;BME280;61313;48.396;10.008;2023-04-26T07:33:00;96253.25;;;9.87;52.44
8253;BME280;61313;48.396;10.008;2023-04-26T07:35:26;96247.97;;;9.88;52.77
8253;BME280;61313;48.396;10.008;2023-04-26T07:37:51;96249.84;;;10.05;51.50
8253;BME280;61313;48.396;10.008;2023-04-26T07:40:17;96247.81;;;10.32;51.12
8253;BME280;61313;48.396;10.008;2023-04-26T07:42:44;96248.56;;;10.72;50.06
8253;BME280;61313;48.396;10.008;2023-04-26T07:45:09;96241.97;;;10.83;49.36
8253;BME280;61313;48.396;10.008;2023-04-26T07:47:35;96242.09;;;10.98;48.71
8253;BME280;61313;48.396;10.008;2023-04-26T07:50:00;96233.97;;;11.74;46.57
8253;BME280;61313;48.396;10.008;2023-04-26T07:52:26;96235.19;;;11.50;47.80
8253;BME280;61313;48.396;10.008;2023-04-26T07:54:51;96248.25;;;10.97;48.50
8253;BME280;61313;48.396;10.008;2023-04-26T07:57:17;96253.09;;;10.31;48.87
8253;BME280;61313;48.396;10.008;2023-04-26T07:59:42;96237.31;;;11.60;47.01
8253;BME280;61313;48.396;10.008;2023-04-26T08:02:08;96233.28;;;12.55;44.46
8253;BME280;61313;48.396;10.008;2023-04-26T08:04:33;96234.50;;;11.98;46.17
8253;BME280;61313;48.396;10.008;2023-04-26T08:06:59;96236.84;;;11.70;47.21
8253;BME280;61313;48.396;10.008;2023-04-26T08:09:27;96229.78;;;11.70;46.40
8253;BME280;61313;48.396;10.008;2023-04-26T08:11:52;96231.53;;;12.22;44.86
8253;BME280;61313;48.396;10.008;2023-04-26T08:14:18;96232.41;;;12.54;44.03
8253;BME280;61313;48.396;10.008;2023-04-26T08:16:43;96237.28;;;11.43;45.56
8253;BME280;61313;48.396;10.008;2023-04-26T08:19:08;96236.06;;;12.02;44.77
8253;BME280;61313;48.396;10.008;2023-04-26T08:21:34;96239.72;;;12.49;54.26
8253;BME280;61313;48.396;10.008;2023-04-26T08:23:59;96226.19;;;13.65;58.03
8253;BME280;61313;48.396;10.008;2023-04-26T08:26:24;96234.56;;;12.79;49.47
8253;BME280;61313;48.396;10.008;2023-04-26T08:28:50;96230.75;;;12.69;46.55
8253;BME280;61313;48.396;10.008;2023-04-26T08:31:15;96228.13;;;12.20;44.18
8253;BME280;61313;48.396;10.008;2023-04-26T08:33:41;96233.50;;;11.49;45.04
8253;BME280;61313;48.396;10.008;2023-04-26T08:36:07;96243.34;;;11.62;45.14
8253;BME280;61313;48.396;10.008;2023-04-26T08:38:32;96238.66;;;11.85;43.51
8253;BME280;61313;48.396;10.008;2023-04-26T08:40:58;96235.72;;;12.08;42.87
8253;BME280;61313;48.396;10.008;2023-04-26T08:43:27;96234.03;;;12.07;44.32
8253;BME280;61313;48.396;10.008;2023-04-26T08:45:53;96244.38;;;12.11;43.93
8253;BME280;61313;48.396;10.008;2023-04-26T08:48:19;96241.81;;;12.09;42.79
8253;BME280;61313;48.396;10.008;2023-04-26T08:50:46;96237.34;;;12.11;43.48
8253;BME280;61313;48.396;10.008;2023-04-26T08:53:16;96244.91;;;11.13;45.06
8253;BME280;61313;48.396;10.008;2023-04-26T08:55:48;96247.19;;;11.01;45.83
8253;BME280;61313;48.396;10.008;2023-04-26T08:58:14;96248.34;;;11.50;44.00
8253;BME280;61313;48.396;10.008;2023-04-26T09:00:42;96252.69;;;11.68;44.10
8253;BME280;61313;48.396;10.008;2023-04-26T09:03:09;96246.41;;;11.71;43.85
8253;BME280;61313;48.396;10.008;2023-04-26T09:05:34;96246.25;;;11.74;43.94
8253;BME280;61313;48.396;10.008;2023-04-26T09:08:01;96243.59;;;11.21;45.59
8253;BME280;61313;48.396;10.008;2023-04-26T09:10:28;96240.44;;;12.02;43.75
8253;BME280;61313;48.396;10.008;2023-04-26T09:12:54;96239.25;;;12.25;42.54
8253;BME280;61313;48.396;10.008;2023-04-26T09:15:22;96247.59;;;12.33;42.98
8253;BME280;61313;48.396;10.008;2023-04-26T09:17:48;96241.69;;;13.09;41.32
8253;BME280;61313;48.396;10.008;2023-04-26T09:20:28;96229.19;;;12.97;41.20
8253;BME280;61313;48.396;10.008;2023-04-26T09:23:04;96232.50;;;13.00;42.15
8253;BME280;61313;48.396;10.008;2023-04-26T09:25:30;96227.75;;;13.07;40.78
8253;BME280;61313;48.396;10.008;2023-04-26T09:27:57;96234.31;;;12.84;41.92
8253;BME280;61313;48.396;10.008;2023-04-26T09:30:23;96222.75;;;12.70;43.17
8253;BME280;61313;48.396;10.008;2023-04-26T09:32:54;96235.88;;;12.05;42.79
8253;BME280;61313;48.396;10.008;2023-04-26T09:38:03;96245.13;;;11.08;44.68
8253;BME280;61313;48.396;10.008;2023-04-26T09:40:31;96234.13;;;11.00;44.36
8253;BME280;61313;48.396;10.008;2023-04-26T09:42:59;96241.06;;;10.46;46.17
8253;BME280;61313;48.396;10.008;2023-04-26T09:45:25;96227.53;;;11.28;44.93
8253;BME280;61313;48.396;10.008;2023-04-26T09:47:51;96231.66;;;11.51;44.50
8253;BME280;61313;48.396;10.008;2023-04-26T09:50:28;96228.63;;;11.58;44.18
8253;BME280;61313;48.396;10.008;2023-04-26T09:52:54;96228.78;;;11.90;43.79
8253;BME280;61313;48.396;10.008;2023-04-26T09:55:27;96230.41;;;11.58;44.41
8253;BME280;61313;48.396;10.008;2023-04-26T09:57:54;96233.34;;;11.52;44.01
8253;BME280;61313;48.396;10.008;2023-04-26T10:00:20;96228.66;;;11.41;44.52
8253;BME280;61313;48.396;10.008;2023-04-26T10:02:46;96229.72;;;11.89;43.97
8253;BME280;61313;48.396;10.008;2023-04-26T10:05:12;96237.75;;;11.69;44.38
8253;BME280;61313;48.396;10.008;2023-04-26T10:07:38;96231.19;;;12.28;43.21
8253;BME280;61313;48.396;10.008;2023-04-26T10:10:06;96228.16;;;12.02;43.16
8253;BME280;61313;48.396;10.008;2023-04-26T10:12:33;96221.13;;;12.19;43.13
8253;BME280;61313;48.396;10.008;2023-04-26T10:14:58;96220.59;;;11.96;44.38
8253;BME280;61313;48.396;10.008;2023-04-26T10:17:24;96215.16;;;12.33;43.39
8253;BME280;61313;48.396;10.008;2023-04-26T10:19:52;96219.41;;;12.51;41.46
8253;BME280;61313;48.396;10.008;2023-04-26T10:22:22;96216.81;;;12.67;42.08
8253;BME280;61313;48.396;10.008;2023-04-26T10:24:48;96215.25;;;12.47;41.16
8253;BME280;61313;48.396;10.008;2023-04-26T10:27:14;96205.44;;;11.84;42.64
8253;BME280;61313;48.396;10.008;2023-04-26T10:32:21;96207.53;;;11.25;45.26
8253;BME280;61313;48.396;10.008;2023-04-26T10:35:19;96203.91;;;11.10;45.33
8253;BME280;61313;48.396;10.008;2023-04-26T10:40:28;96192.03;;;12.06;43.69
8253;BME280;61313;48.396;10.008;2023-04-26T10:45:47;96181.44;;;12.23;43.04
8253;BME280;61313;48.396;10.008;2023-04-26T10:48:19;96187.03;;;11.66;43.79
8253;BME280;61313;48.396;10.008;2023-04-26T10:53:23;96188.44;;;11.56;44.55
8253;BME280;61313;48.396;10.008;2023-04-26T10:55:49;96180.31;;;11.09;45.28
8253;BME280;61313;48.396;10.008;2023-04-26T10:58:35;96172.31;;;11.29;44.26
8253;BME280;61313;48.396;10.008;2023-04-26T11:01:08;96181.34;;;11.41;42.73
8253;BME280;61313;48.396;10.008;2023-04-26T11:03:36;96175.59;;;11.50;42.43
8253;BME280;61313;48.396;10.008;2023-04-26T11:06:06;96174.81;;;11.65;42.72
8253;BME280;61313;48.396;10.008;2023-04-26T11:08:32;96182.09;;;11.26;42.79
8253;BME280;61313;48.396;10.008;2023-04-26T11:13:31;96172.31;;;11.97;41.70
8253;BME280;61313;48.396;10.008;2023-04-26T11:16:01;96180.19;;;11.97;40.58
8253;BME280;61313;48.396;10.008;2023-04-26T11:18:34;96182.44;;;12.21;40.97
8253;BME280;61313;48.396;10.008;2023-04-26T11:21:00;96177.75;;;12.59;40.05
8253;BME280;61313;48.396;10.008;2023-04-26T11:23:28;96178.97;;;12.20;41.49
8253;BME280;61313;48.396;10.008;2023-04-26T11:26:01;96172.75;;;12.55;41.66
8253;BME280;61313;48.396;10.008;2023-04-26T11:28:34;96181.69;;;12.19;42.32
8253;BME280;61313;48.396;10.008;2023-04-26T11:31:02;96166.19;;;12.46;41.19
8253;BME280;61313;48.396;10.008;2023-04-26T11:33:28;96163.47;;;12.63;40.70
8253;BME280;61313;48.396;10.008;2023-04-26T11:35:56;96167.69;;;12.66;40.05
8253;BME280;61313;48.396;10.008;2023-04-26T11:38:26;96172.31;;;12.62;40.33
8253;BME280;61313;48.396;10.008;2023-04-26T11:40:59;96166.41;;;13.05;39.96
8253;BME280;61313;48.396;10.008;2023-04-26T11:43:37;96167.94;;;13.39;39.21
8253;BME280;61313;48.396;10.008;2023-04-26T11:46:04;96165.09;;;13.12;39.31
8253;BME280;61313;48.396;10.008;2023-04-26T11:48:31;96166.22;;;13.08;39.49
8253;BME280;61313;48.396;10.008;2023-04-26T11:50:58;96155.81;;;12.59;40.00
8253;BME280;61313;48.396;10.008;2023-04-26T11:53:24;96144.84;;;12.82;39.74
8253;BME280;61313;48.396;10.008;2023-04-26T11:55:50;96149.44;;;12.47;40.70
8253;BME280;61313;48.396;10.008;2023-04-26T11:58:16;96153.72;;;13.11;39.44
8253;BME280;61313;48.396;10.008;2023-04-26T12:01:08;96152.00;;;12.17;40.31
8253;BME280;61313;48.396;10.008;2023-04-26T12:03:34;96152.69;;;11.87;41.42
8253;BME280;61313;48.396;10.008;2023-04-26T12:06:02;96144.75;;;11.89;40.80
8253;BME280;61313;48.396;10.008;2023-04-26T12:08:28;96145.22;;;11.62;41.30
8253;BME280;61313;48.396;10.008;2023-04-26T12:10:58;96136.03;;;12.52;40.33
8253;BME280;61313;48.396;10.008;2023-04-26T12:13:24;96141.28;;;12.83;39.28
8253;BME280;61313;48.396;10.008;2023-04-26T12:15:50;96141.63;;;12.77;38.14
8253;BME280;61313;48.396;10.008;2023-04-26T12:18:17;96140.44;;;13.13;38.26
8253;BME280;61313;48.396;10.008;2023-04-26T12:20:43;96136.16;;;13.26;38.41
8253;BME280;61313;48.396;10.008;2023-04-26T12:23:11;96124.38;;;13.62;37.42
8253;BME280;61313;48.396;10.008;2023-04-26T12:25:39;96122.59;;;13.63;37.20
8253;BME280;61313;48.396;10.008;2023-04-26T12:28:07;96118.66;;;13.70;37.61
8253;BME280;61313;48.396;10.008;2023-04-26T12:30:37;96125.16;;;13.79;35.73
8253;BME280;61313;48.396;10.008;2023-04-26T12:33:03;96124.97;;;13.96;36.10
8253;BME280;61313;48.396;10.008;2023-04-26T12:35:30;96124.69;;;13.86;36.33
8253;BME280;61313;48.396;10.008;2023-04-26T12:37:56;96126.00;;;13.93;35.96
8253;BME280;61313;48.396;10.008;2023-04-26T12:40:24;96118.09;;;13.79;34.29
8253;BME280;61313;48.396;10.008;2023-04-26T12:42:50;96108.78;;;13.73;35.57
8253;BME280;61313;48.396;10.008;2023-04-26T12:45:16;96106.41;;;13.69;35.88
8253;BME280;61313;48.396;10.008;2023-04-26T12:47:44;96112.66;;;13.82;35.48
8253;BME280;61313;48.396;10.008;2023-04-26T12:50:10;96114.25;;;13.70;35.72
8253;BME280;61313;48.396;10.008;2023-04-26T12:52:38;96120.84;;;13.92;35.10
8253;BME280;61313;48.396;10.008;2023-04-26T12:55:05;96113.28;;;13.86;35.55
8253;BME280;61313;48.396;10.008;2023-04-26T12:57:31;96107.34;;;14.11;35.21
8253;BME280;61313;48.396;10.008;2023-04-26T12:59:56;96109.28;;;14.22;34.45
8253;BME280;61313;48.396;10.008;2023-04-26T13:02:21;96094.22;;;14.24;34.74
8253;BME280;61313;48.396;10.008;2023-04-26T13:04:47;96094.06;;;13.84;35.52
8253;BME280;61313;48.396;10.008;2023-04-26T13:07:13;96098.41;;;13.99;35.40
8253;BME280;61313;48.396;10.008;2023-04-26T13:09:38;96094.59;;;14.32;34.62
8253;BME280;61313;48.396;10.008;2023-04-26T13:12:04;96094.75;;;14.29;34.65
8253;BME280;61313;48.396;10.008;2023-04-26T13:14:29;96098.66;;;14.23;34.61
8253;BME280;61313;48.396;10.008;2023-04-26T13:16:55;96092.41;;;14.24;34.81